Dauntless Aviation
Airports Europe Spain
LECU
ECV

Cuatro Vientos Airport

Madrid, SPAIN

Airport Info
Suggest Updated Information for this Airport

Location

Latitude / Longitude: 40°22'14"N / 3°47'6"W
  40°22.242'N / 3°47.106'W
  40.3707 / -3.7851

Runway Information

Runway 10 /28

Dimensions: 4921 x 98 ft.
Surface: ASP
 
Runway 10
Runway 28
Latitude: 40.371122 40.370233
Longitude: -3.793928 -3.776353
Elevation: 2267 ft. 2267 ft.
Runway true heading: 91.3 271.3
 

Runway 10L/28R

Dimensions: 3697 x 148 ft.
Surface: ASP
 
Runway 10L
Runway 28R
Latitude: 40.372342 40.371622
Longitude: -3.790706 -3.777589
Elevation: 2264 ft. 2264 ft.
Runway true heading: 91.3 271.3
 

Instrument Procedures

  Aerodrome Chart 1.1
  Aerodrome Chart 1.2
  LEVS Parking / Docking Chart 1

IAPs (Instrument Approach Procedures)

  Aerodrome Information (Textual)
  Aerodrome Obstacle Chart Rwy 1 Rwy 09
  Aerodrome Obstacle Chart Rwy 2 Rwy 27
  Visual Approach Chart 1
Satellite photo at:
Airport distance calculator
From:
Weather Reports

METAR

LEVS
0.9nm E
LEVS 281700Z VRB03KT CAVOK 29/07 Q1020
LEGT
6.1nm SE
LEGT 281700Z 14008KT 080V210 CAVOK 29/09 Q1020
LEMD
12.1nm NE
LEMD 281700Z 18005KT 140V240 CAVOK 29/07 Q1019 NOSIG
LETO
15.7nm NE
LETO 281700Z 01005KT CAVOK 29/04 Q1020 NOSIG
LECV
16.1nm N
LECV 281700Z 11003KT 9999 FEW065 26/02 Q1022

TAF

LEVS
0.9nm E
TAF LEVS 281400Z 2815/2824 11007KT CAVOK PROB40 TEMPO 2820/2824 17007KT
LEGT
6.1nm SE
TAF LEGT 281400Z 2815/2824 11007KT CAVOK PROB40 TEMPO 2820/2824 17007KT
LEMD
12.1nm NE
TAF LEMD 281100Z 2812/2918 13007KT CAVOK TX30/2816Z TN13/2906Z TEMPO 2902/2909 VRB04KT
LETO
15.7nm NE
TAF LETO 281100Z 2812/2912 13007KT CAVOK TX30/2816Z TN13/2906Z PROB40 TEMPO 2813/2820 20007KT TEMPO 2903/2909 VRB04KT
LECV
16.1nm N
TAF LECV 281400Z 2815/2824 11007KT CAVOK BECMG 2819/2821 VRB04KT
Safelog

 

Dauntless Aviation

© 2007-2020 Dauntless Aviation, all rights reserved
Information provided via PilotNav comes from a variety of official and unofficial data sources. As errors are possible, do not use PilotNav for primary flight planning purposes. Verify any information that you receive via PilotNav with current and canonical charts and other official documents. The material in this database is subject to database copyrights held by Dauntless Aviation and may not be copied without the express permission of Dauntless Aviation - licenses for use of part of all of this data are available for purchase; enquire via the Dauntless Aviation helpdesk. A number of mechanisms and markers exist in the database to protect against and identify infringement / copyright. Automated queries against this website are stictly prohibited, and all activity is logged and analyzed.